sensor_id;sensor_type;location;lat;lon;timestamp;P1;durP1;ratioP1;P2;durP2;ratioP2
32295;SDS011;18781;51.550;5.418;2022-07-06T00:00:41;5.03;;;2.40;;
32295;SDS011;18781;51.550;5.418;2022-07-06T00:03:07;5.30;;;2.65;;
32295;SDS011;18781;51.550;5.418;2022-07-06T00:05:32;8.88;;;2.75;;
32295;SDS011;18781;51.550;5.418;2022-07-06T00:07:58;9.73;;;2.70;;
32295;SDS011;18781;51.550;5.418;2022-07-06T00:10:23;6.72;;;2.78;;
32295;SDS011;18781;51.550;5.418;2022-07-06T00:12:49;4.80;;;2.67;;
32295;SDS011;18781;51.550;5.418;2022-07-06T00:15:14;7.25;;;2.60;;
32295;SDS011;18781;51.550;5.418;2022-07-06T00:17:40;5.97;;;2.75;;
32295;SDS011;18781;51.550;5.418;2022-07-06T00:20:06;6.07;;;2.95;;
32295;SDS011;18781;51.550;5.418;2022-07-06T00:22:31;4.68;;;2.75;;
32295;SDS011;18781;51.550;5.418;2022-07-06T00:24:57;5.65;;;2.58;;
32295;SDS011;18781;51.550;5.418;2022-07-06T00:27:23;11.32;;;3.35;;
32295;SDS011;18781;51.550;5.418;2022-07-06T00:29:48;6.88;;;2.53;;
32295;SDS011;18781;51.550;5.418;2022-07-06T00:32:14;6.30;;;2.85;;
32295;SDS011;18781;51.550;5.418;2022-07-06T00:34:39;4.93;;;2.53;;
32295;SDS011;18781;51.550;5.418;2022-07-06T00:37:05;6.55;;;2.97;;
32295;SDS011;18781;51.550;5.418;2022-07-06T00:39:32;6.43;;;3.30;;
32295;SDS011;18781;51.550;5.418;2022-07-06T00:41:58;7.55;;;3.00;;
32295;SDS011;18781;51.550;5.418;2022-07-06T00:44:24;6.55;;;3.28;;
32295;SDS011;18781;51.550;5.418;2022-07-06T00:46:50;5.55;;;2.80;;
32295;SDS011;18781;51.550;5.418;2022-07-06T00:49:15;6.55;;;3.05;;
32295;SDS011;18781;51.550;5.418;2022-07-06T00:51:59;6.18;;;2.83;;
32295;SDS011;18781;51.550;5.418;2022-07-06T00:54:26;5.78;;;3.15;;
32295;SDS011;18781;51.550;5.418;2022-07-06T00:56:53;7.30;;;3.15;;
32295;SDS011;18781;51.550;5.418;2022-07-06T00:59:19;4.75;;;2.97;;
32295;SDS011;18781;51.550;5.418;2022-07-06T01:01:45;7.70;;;3.30;;
32295;SDS011;18781;51.550;5.418;2022-07-06T01:04:10;9.57;;;2.97;;
32295;SDS011;18781;51.550;5.418;2022-07-06T01:06:36;6.10;;;3.28;;
32295;SDS011;18781;51.550;5.418;2022-07-06T01:09:01;7.05;;;3.50;;
32295;SDS011;18781;51.550;5.418;2022-07-06T01:11:28;8.05;;;3.20;;
32295;SDS011;18781;51.550;5.418;2022-07-06T01:13:53;5.75;;;3.35;;
32295;SDS011;18781;51.550;5.418;2022-07-06T01:16:21;7.65;;;3.25;;
32295;SDS011;18781;51.550;5.418;2022-07-06T01:18:46;6.30;;;2.88;;
32295;SDS011;18781;51.550;5.418;2022-07-06T01:21:13;10.65;;;3.45;;
32295;SDS011;18781;51.550;5.418;2022-07-06T01:23:40;7.78;;;3.17;;
32295;SDS011;18781;51.550;5.418;2022-07-06T01:26:08;3.92;;;2.95;;
32295;SDS011;18781;51.550;5.418;2022-07-06T01:28:34;5.80;;;3.38;;
32295;SDS011;18781;51.550;5.418;2022-07-06T01:31:00;10.02;;;3.65;;
32295;SDS011;18781;51.550;5.418;2022-07-06T01:33:26;5.22;;;3.58;;
32295;SDS011;18781;51.550;5.418;2022-07-06T01:35:51;7.70;;;4.00;;
32295;SDS011;18781;51.550;5.418;2022-07-06T01:38:17;5.70;;;4.10;;
32295;SDS011;18781;51.550;5.418;2022-07-06T01:40:42;6.13;;;3.75;;
32295;SDS011;18781;51.550;5.418;2022-07-06T01:43:08;11.77;;;4.60;;
32295;SDS011;18781;51.550;5.418;2022-07-06T01:45:33;5.85;;;4.22;;
32295;SDS011;18781;51.550;5.418;2022-07-06T01:47:59;7.03;;;3.60;;
32295;SDS011;18781;51.550;5.418;2022-07-06T01:50:24;6.68;;;4.10;;
32295;SDS011;18781;51.550;5.418;2022-07-06T01:52:50;6.90;;;3.80;;
32295;SDS011;18781;51.550;5.418;2022-07-06T01:55:15;9.80;;;4.28;;
32295;SDS011;18781;51.550;5.418;2022-07-06T01:57:41;11.30;;;5.13;;
32295;SDS011;18781;51.550;5.418;2022-07-06T02:00:07;7.70;;;4.82;;
32295;SDS011;18781;51.550;5.418;2022-07-06T02:02:33;10.10;;;4.82;;
32295;SDS011;18781;51.550;5.418;2022-07-06T02:04:59;8.10;;;4.78;;
32295;SDS011;18781;51.550;5.418;2022-07-06T02:07:24;9.15;;;4.90;;
32295;SDS011;18781;51.550;5.418;2022-07-06T02:09:50;10.10;;;4.97;;
32295;SDS011;18781;51.550;5.418;2022-07-06T02:12:15;9.25;;;4.60;;
32295;SDS011;18781;51.550;5.418;2022-07-06T02:14:41;10.63;;;4.93;;
32295;SDS011;18781;51.550;5.418;2022-07-06T02:17:06;8.57;;;5.00;;
32295;SDS011;18781;51.550;5.418;2022-07-06T02:19:32;7.95;;;4.80;;
32295;SDS011;18781;51.550;5.418;2022-07-06T02:21:57;10.35;;;5.50;;
32295;SDS011;18781;51.550;5.418;2022-07-06T02:24:23;7.18;;;5.10;;
32295;SDS011;18781;51.550;5.418;2022-07-06T02:26:48;7.35;;;5.30;;
32295;SDS011;18781;51.550;5.418;2022-07-06T02:29:14;11.23;;;6.20;;
32295;SDS011;18781;51.550;5.418;2022-07-06T02:31:40;9.90;;;5.38;;
32295;SDS011;18781;51.550;5.418;2022-07-06T02:34:05;7.60;;;5.55;;
32295;SDS011;18781;51.550;5.418;2022-07-06T02:36:31;10.20;;;5.53;;
32295;SDS011;18781;51.550;5.418;2022-07-06T02:38:56;8.15;;;5.40;;
32295;SDS011;18781;51.550;5.418;2022-07-06T02:41:22;9.00;;;5.65;;
32295;SDS011;18781;51.550;5.418;2022-07-06T02:43:47;10.50;;;5.15;;
32295;SDS011;18781;51.550;5.418;2022-07-06T02:46:13;9.38;;;5.50;;
32295;SDS011;18781;51.550;5.418;2022-07-06T02:48:39;12.43;;;5.40;;
32295;SDS011;18781;51.550;5.418;2022-07-06T02:51:04;7.75;;;5.20;;
32295;SDS011;18781;51.550;5.418;2022-07-06T02:53:30;13.38;;;5.75;;
32295;SDS011;18781;51.550;5.418;2022-07-06T02:55:55;8.15;;;4.90;;
32295;SDS011;18781;51.550;5.418;2022-07-06T02:58:21;9.90;;;5.35;;
32295;SDS011;18781;51.550;5.418;2022-07-06T03:00:46;8.15;;;5.13;;
32295;SDS011;18781;51.550;5.418;2022-07-06T03:03:12;9.52;;;5.18;;
32295;SDS011;18781;51.550;5.418;2022-07-06T03:05:38;8.10;;;5.07;;
32295;SDS011;18781;51.550;5.418;2022-07-06T03:08:03;11.55;;;5.10;;
32295;SDS011;18781;51.550;5.418;2022-07-06T03:10:29;6.93;;;5.22;;
32295;SDS011;18781;51.550;5.418;2022-07-06T03:12:54;7.00;;;5.28;;
32295;SDS011;18781;51.550;5.418;2022-07-06T03:15:20;11.27;;;5.20;;
32295;SDS011;18781;51.550;5.418;2022-07-06T03:17:46;8.95;;;5.10;;
32295;SDS011;18781;51.550;5.418;2022-07-06T03:20:11;9.88;;;5.25;;
32295;SDS011;18781;51.550;5.418;2022-07-06T03:22:37;10.27;;;5.70;;
32295;SDS011;18781;51.550;5.418;2022-07-06T03:25:02;11.60;;;5.55;;
32295;SDS011;18781;51.550;5.418;2022-07-06T03:27:28;7.60;;;5.38;;
32295;SDS011;18781;51.550;5.418;2022-07-06T03:29:54;9.77;;;5.47;;
32295;SDS011;18781;51.550;5.418;2022-07-06T03:32:19;10.10;;;5.40;;
32295;SDS011;18781;51.550;5.418;2022-07-06T03:34:45;11.52;;;5.72;;
32295;SDS011;18781;51.550;5.418;2022-07-06T03:37:10;10.88;;;5.85;;
32295;SDS011;18781;51.550;5.418;2022-07-06T03:39:36;10.25;;;5.60;;
32295;SDS011;18781;51.550;5.418;2022-07-06T03:42:02;7.20;;;4.90;;
32295;SDS011;18781;51.550;5.418;2022-07-06T03:44:28;7.82;;;5.57;;
32295;SDS011;18781;51.550;5.418;2022-07-06T03:46:53;8.20;;;5.22;;
32295;SDS011;18781;51.550;5.418;2022-07-06T03:49:20;8.93;;;5.00;;
32295;SDS011;18781;51.550;5.418;2022-07-06T03:51:46;9.57;;;5.60;;
32295;SDS011;18781;51.550;5.418;2022-07-06T03:54:12;8.90;;;5.63;;
32295;SDS011;18781;51.550;5.418;2022-07-06T03:56:37;7.80;;;5.15;;
32295;SDS011;18781;51.550;5.418;2022-07-06T03:59:03;10.48;;;5.70;;
32295;SDS011;18781;51.550;5.418;2022-07-06T04:01:29;5.63;;;4.90;;
32295;SDS011;18781;51.550;5.418;2022-07-06T04:03:55;7.82;;;5.43;;
32295;SDS011;18781;51.550;5.418;2022-07-06T04:06:21;10.48;;;5.18;;
32295;SDS011;18781;51.550;5.418;2022-07-06T04:08:47;6.82;;;4.75;;
32295;SDS011;18781;51.550;5.418;2022-07-06T04:11:12;9.63;;;5.40;;
32295;SDS011;18781;51.550;5.418;2022-07-06T04:13:38;9.57;;;4.82;;
32295;SDS011;18781;51.550;5.418;2022-07-06T04:16:04;9.43;;;5.35;;
32295;SDS011;18781;51.550;5.418;2022-07-06T04:18:30;11.00;;;5.43;;
32295;SDS011;18781;51.550;5.418;2022-07-06T04:20:56;11.35;;;5.60;;
32295;SDS011;18781;51.550;5.418;2022-07-06T04:23:22;10.85;;;5.05;;
32295;SDS011;18781;51.550;5.418;2022-07-06T04:25:48;8.73;;;5.88;;
32295;SDS011;18781;51.550;5.418;2022-07-06T04:28:14;9.30;;;5.60;;
32295;SDS011;18781;51.550;5.418;2022-07-06T04:30:40;7.38;;;5.13;;
32295;SDS011;18781;51.550;5.418;2022-07-06T04:33:06;11.40;;;5.55;;
32295;SDS011;18781;51.550;5.418;2022-07-06T04:35:31;11.65;;;5.68;;
32295;SDS011;18781;51.550;5.418;2022-07-06T04:37:57;10.27;;;5.53;;
32295;SDS011;18781;51.550;5.418;2022-07-06T04:40:22;12.23;;;5.25;;
32295;SDS011;18781;51.550;5.418;2022-07-06T04:42:48;9.07;;;5.10;;
32295;SDS011;18781;51.550;5.418;2022-07-06T04:45:13;10.45;;;5.45;;
32295;SDS011;18781;51.550;5.418;2022-07-06T04:47:39;9.32;;;5.00;;
32295;SDS011;18781;51.550;5.418;2022-07-06T04:50:05;12.02;;;5.38;;
32295;SDS011;18781;51.550;5.418;2022-07-06T04:52:31;6.45;;;4.93;;
32295;SDS011;18781;51.550;5.418;2022-07-06T04:54:56;10.75;;;5.18;;
32295;SDS011;18781;51.550;5.418;2022-07-06T04:57:22;7.90;;;4.93;;
32295;SDS011;18781;51.550;5.418;2022-07-06T04:59:50;9.25;;;5.18;;
32295;SDS011;18781;51.550;5.418;2022-07-06T05:02:16;10.70;;;4.70;;
32295;SDS011;18781;51.550;5.418;2022-07-06T05:04:42;12.07;;;5.10;;
32295;SDS011;18781;51.550;5.418;2022-07-06T05:07:07;11.63;;;5.07;;
32295;SDS011;18781;51.550;5.418;2022-07-06T05:09:33;12.70;;;5.50;;
32295;SDS011;18781;51.550;5.418;2022-07-06T05:11:59;9.25;;;5.22;;
32295;SDS011;18781;51.550;5.418;2022-07-06T05:14:24;8.55;;;4.57;;
32295;SDS011;18781;51.550;5.418;2022-07-06T05:16:50;7.97;;;4.90;;
32295;SDS011;18781;51.550;5.418;2022-07-06T05:19:16;9.38;;;4.75;;
32295;SDS011;18781;51.550;5.418;2022-07-06T05:21:41;5.78;;;4.63;;
32295;SDS011;18781;51.550;5.418;2022-07-06T05:24:07;7.38;;;4.53;;
32295;SDS011;18781;51.550;5.418;2022-07-06T05:26:33;9.45;;;4.60;;
32295;SDS011;18781;51.550;5.418;2022-07-06T05:28:58;11.13;;;4.90;;
32295;SDS011;18781;51.550;5.418;2022-07-06T05:31:24;7.28;;;4.60;;
32295;SDS011;18781;51.550;5.418;2022-07-06T05:33:49;5.15;;;4.30;;
32295;SDS011;18781;51.550;5.418;2022-07-06T05:36:15;8.23;;;4.53;;
32295;SDS011;18781;51.550;5.418;2022-07-06T05:38:41;7.10;;;4.25;;
32295;SDS011;18781;51.550;5.418;2022-07-06T05:41:07;7.18;;;4.10;;
32295;SDS011;18781;51.550;5.418;2022-07-06T05:43:34;9.10;;;4.35;;
32295;SDS011;18781;51.550;5.418;2022-07-06T05:46:01;6.23;;;4.30;;
32295;SDS011;18781;51.550;5.418;2022-07-06T05:48:26;11.20;;;4.07;;
32295;SDS011;18781;51.550;5.418;2022-07-06T05:51:10;7.55;;;4.07;;
32295;SDS011;18781;51.550;5.418;2022-07-06T05:53:36;7.30;;;3.80;;
32295;SDS011;18781;51.550;5.418;2022-07-06T05:56:01;7.70;;;4.10;;
32295;SDS011;18781;51.550;5.418;2022-07-06T05:58:27;9.60;;;3.90;;
32295;SDS011;18781;51.550;5.418;2022-07-06T06:00:52;8.82;;;4.07;;
32295;SDS011;18781;51.550;5.418;2022-07-06T06:03:18;9.30;;;3.92;;
32295;SDS011;18781;51.550;5.418;2022-07-06T06:05:44;6.57;;;3.90;;
32295;SDS011;18781;51.550;5.418;2022-07-06T06:08:09;10.38;;;3.78;;
32295;SDS011;18781;51.550;5.418;2022-07-06T06:10:35;9.10;;;3.35;;
32295;SDS011;18781;51.550;5.418;2022-07-06T06:13:00;11.40;;;3.40;;
32295;SDS011;18781;51.550;5.418;2022-07-06T06:15:26;6.45;;;2.40;;
32295;SDS011;18781;51.550;5.418;2022-07-06T06:17:52;6.28;;;2.55;;
32295;SDS011;18781;51.550;5.418;2022-07-06T06:20:17;10.15;;;2.67;;
32295;SDS011;18781;51.550;5.418;2022-07-06T06:22:53;6.93;;;2.83;;
32295;SDS011;18781;51.550;5.418;2022-07-06T06:25:26;4.93;;;2.60;;
32295;SDS011;18781;51.550;5.418;2022-07-06T06:27:53;5.88;;;2.75;;
32295;SDS011;18781;51.550;5.418;2022-07-06T06:30:19;5.32;;;2.20;;
32295;SDS011;18781;51.550;5.418;2022-07-06T06:32:44;5.78;;;2.50;;
32295;SDS011;18781;51.550;5.418;2022-07-06T06:35:10;5.22;;;2.30;;
32295;SDS011;18781;51.550;5.418;2022-07-06T06:37:36;5.78;;;2.72;;
32295;SDS011;18781;51.550;5.418;2022-07-06T06:40:03;6.18;;;2.40;;
32295;SDS011;18781;51.550;5.418;2022-07-06T06:42:30;5.35;;;2.58;;
32295;SDS011;18781;51.550;5.418;2022-07-06T06:44:56;6.00;;;2.60;;
32295;SDS011;18781;51.550;5.418;2022-07-06T06:47:21;6.95;;;2.30;;
32295;SDS011;18781;51.550;5.418;2022-07-06T06:49:47;6.50;;;2.35;;
32295;SDS011;18781;51.550;5.418;2022-07-06T06:52:12;6.32;;;2.60;;
32295;SDS011;18781;51.550;5.418;2022-07-06T06:54:38;5.00;;;2.53;;
32295;SDS011;18781;51.550;5.418;2022-07-06T06:57:04;7.80;;;2.40;;
32295;SDS011;18781;51.550;5.418;2022-07-06T06:59:29;7.35;;;2.42;;
32295;SDS011;18781;51.550;5.418;2022-07-06T07:01:55;4.65;;;2.38;;
32295;SDS011;18781;51.550;5.418;2022-07-06T07:04:20;8.85;;;2.55;;
32295;SDS011;18781;51.550;5.418;2022-07-06T07:06:46;9.15;;;2.20;;
32295;SDS011;18781;51.550;5.418;2022-07-06T07:09:12;5.03;;;2.35;;
32295;SDS011;18781;51.550;5.418;2022-07-06T07:11:37;3.47;;;2.17;;
32295;SDS011;18781;51.550;5.418;2022-07-06T07:14:03;5.85;;;2.30;;
32295;SDS011;18781;51.550;5.418;2022-07-06T07:16:29;8.30;;;2.60;;
32295;SDS011;18781;51.550;5.418;2022-07-06T07:18:54;2.90;;;2.20;;
32295;SDS011;18781;51.550;5.418;2022-07-06T07:21:20;5.88;;;2.38;;
32295;SDS011;18781;51.550;5.418;2022-07-06T07:23:45;6.68;;;2.63;;
32295;SDS011;18781;51.550;5.418;2022-07-06T07:26:11;4.97;;;2.30;;
32295;SDS011;18781;51.550;5.418;2022-07-06T07:28:37;5.22;;;1.83;;
32295;SDS011;18781;51.550;5.418;2022-07-06T07:31:03;6.72;;;1.52;;
32295;SDS011;18781;51.550;5.418;2022-07-06T07:33:29;3.58;;;1.42;;
32295;SDS011;18781;51.550;5.418;2022-07-06T07:35:55;4.70;;;1.58;;
32295;SDS011;18781;51.550;5.418;2022-07-06T07:38:20;4.50;;;1.00;;
32295;SDS011;18781;51.550;5.418;2022-07-06T07:40:46;4.00;;;1.25;;
32295;SDS011;18781;51.550;5.418;2022-07-06T07:43:11;1.20;;;0.90;;
32295;SDS011;18781;51.550;5.418;2022-07-06T07:45:37;4.88;;;1.23;;
32295;SDS011;18781;51.550;5.418;2022-07-06T07:48:03;2.70;;;0.70;;
32295;SDS011;18781;51.550;5.418;2022-07-06T07:50:29;2.25;;;0.82;;
32295;SDS011;18781;51.550;5.418;2022-07-06T07:52:55;3.13;;;0.80;;
32295;SDS011;18781;51.550;5.418;2022-07-06T07:55:20;1.50;;;0.68;;
32295;SDS011;18781;51.550;5.418;2022-07-06T07:57:46;4.82;;;1.00;;
32295;SDS011;18781;51.550;5.418;2022-07-06T08:00:12;6.13;;;1.02;;
32295;SDS011;18781;51.550;5.418;2022-07-06T08:02:38;3.38;;;1.00;;
32295;SDS011;18781;51.550;5.418;2022-07-06T08:05:04;2.92;;;0.88;;
32295;SDS011;18781;51.550;5.418;2022-07-06T08:07:30;3.22;;;0.93;;
32295;SDS011;18781;51.550;5.418;2022-07-06T08:09:55;5.20;;;0.98;;
32295;SDS011;18781;51.550;5.418;2022-07-06T08:12:21;4.43;;;1.02;;
32295;SDS011;18781;51.550;5.418;2022-07-06T08:14:47;6.18;;;1.50;;
32295;SDS011;18781;51.550;5.418;2022-07-06T08:17:12;3.72;;;0.80;;
32295;SDS011;18781;51.550;5.418;2022-07-06T08:19:38;7.60;;;1.10;;
32295;SDS011;18781;51.550;5.418;2022-07-06T08:22:04;4.25;;;1.10;;
32295;SDS011;18781;51.550;5.418;2022-07-06T08:24:32;2.42;;;0.93;;
32295;SDS011;18781;51.550;5.418;2022-07-06T08:29:28;4.15;;;0.75;;
32295;SDS011;18781;51.550;5.418;2022-07-06T08:31:54;6.55;;;0.85;;
32295;SDS011;18781;51.550;5.418;2022-07-06T08:34:20;3.72;;;1.02;;
32295;SDS011;18781;51.550;5.418;2022-07-06T08:36:45;3.15;;;0.95;;
32295;SDS011;18781;51.550;5.418;2022-07-06T08:39:11;4.70;;;0.90;;
32295;SDS011;18781;51.550;5.418;2022-07-06T08:41:36;3.50;;;0.95;;
32295;SDS011;18781;51.550;5.418;2022-07-06T08:44:05;2.95;;;1.10;;
32295;SDS011;18781;51.550;5.418;2022-07-06T08:46:32;1.52;;;0.70;;
32295;SDS011;18781;51.550;5.418;2022-07-06T08:49:00;4.22;;;1.00;;
32295;SDS011;18781;51.550;5.418;2022-07-06T08:51:25;4.53;;;1.38;;
32295;SDS011;18781;51.550;5.418;2022-07-06T08:53:52;3.67;;;1.20;;
32295;SDS011;18781;51.550;5.418;2022-07-06T08:56:19;4.82;;;1.00;;
32295;SDS011;18781;51.550;5.418;2022-07-06T08:58:44;3.47;;;1.00;;
32295;SDS011;18781;51.550;5.418;2022-07-06T09:01:10;4.10;;;1.30;;
32295;SDS011;18781;51.550;5.418;2022-07-06T09:03:37;3.38;;;1.20;;
32295;SDS011;18781;51.550;5.418;2022-07-06T09:06:05;3.83;;;1.08;;
32295;SDS011;18781;51.550;5.418;2022-07-06T09:08:32;2.88;;;0.88;;
32295;SDS011;18781;51.550;5.418;2022-07-06T09:10:57;5.93;;;0.95;;
32295;SDS011;18781;51.550;5.418;2022-07-06T09:13:23;4.20;;;1.25;;
32295;SDS011;18781;51.550;5.418;2022-07-06T09:15:49;4.05;;;1.08;;
32295;SDS011;18781;51.550;5.418;2022-07-06T09:18:14;4.90;;;0.88;;
32295;SDS011;18781;51.550;5.418;2022-07-06T09:20:40;1.95;;;0.95;;
32295;SDS011;18781;51.550;5.418;2022-07-06T09:23:06;6.35;;;1.10;;
32295;SDS011;18781;51.550;5.418;2022-07-06T09:25:33;3.90;;;0.90;;
32295;SDS011;18781;51.550;5.418;2022-07-06T09:28:00;3.33;;;0.82;;
32295;SDS011;18781;51.550;5.418;2022-07-06T09:30:27;5.35;;;1.15;;
32295;SDS011;18781;51.550;5.418;2022-07-06T09:32:55;6.90;;;0.90;;
32295;SDS011;18781;51.550;5.418;2022-07-06T09:40:27;5.90;;;0.93;;
32295;SDS011;18781;51.550;5.418;2022-07-06T09:43:07;4.90;;;0.80;;
32295;SDS011;18781;51.550;5.418;2022-07-06T09:45:41;3.92;;;0.60;;
32295;SDS011;18781;51.550;5.418;2022-07-06T09:48:09;3.22;;;0.90;;
32295;SDS011;18781;51.550;5.418;2022-07-06T09:50:43;3.97;;;0.70;;
32295;SDS011;18781;51.550;5.418;2022-07-06T09:53:11;4.18;;;0.73;;
32295;SDS011;18781;51.550;5.418;2022-07-06T09:55:38;7.78;;;1.15;;
32295;SDS011;18781;51.550;5.418;2022-07-06T09:58:05;5.13;;;1.13;;
32295;SDS011;18781;51.550;5.418;2022-07-06T10:00:30;2.53;;;0.93;;
32295;SDS011;18781;51.550;5.418;2022-07-06T10:02:56;4.75;;;0.80;;
32295;SDS011;18781;51.550;5.418;2022-07-06T10:05:22;4.55;;;0.93;;
32295;SDS011;18781;51.550;5.418;2022-07-06T10:07:55;5.35;;;0.95;;
32295;SDS011;18781;51.550;5.418;2022-07-06T10:10:26;4.70;;;1.00;;
32295;SDS011;18781;51.550;5.418;2022-07-06T10:12:54;3.13;;;0.90;;
32295;SDS011;18781;51.550;5.418;2022-07-06T10:15:27;5.25;;;0.90;;
32295;SDS011;18781;51.550;5.418;2022-07-06T10:17:57;2.15;;;0.77;;
32295;SDS011;18781;51.550;5.418;2022-07-06T10:20:23;1.42;;;0.55;;
32295;SDS011;18781;51.550;5.418;2022-07-06T10:22:53;3.67;;;0.70;;
32295;SDS011;18781;51.550;5.418;2022-07-06T10:25:22;3.25;;;0.98;;
32295;SDS011;18781;51.550;5.418;2022-07-06T10:27:49;2.92;;;0.63;;
32295;SDS011;18781;51.550;5.418;2022-07-06T10:30:16;2.45;;;0.57;;
32295;SDS011;18781;51.550;5.418;2022-07-06T10:32:43;2.90;;;0.52;;
32295;SDS011;18781;51.550;5.418;2022-07-06T10:35:11;3.78;;;0.70;;
32295;SDS011;18781;51.550;5.418;2022-07-06T10:37:37;2.28;;;0.70;;
32295;SDS011;18781;51.550;5.418;2022-07-06T10:40:03;2.40;;;0.70;;
32295;SDS011;18781;51.550;5.418;2022-07-06T10:42:48;3.40;;;0.93;;
32295;SDS011;18781;51.550;5.418;2022-07-06T10:48:15;3.60;;;0.60;;
32295;SDS011;18781;51.550;5.418;2022-07-06T10:53:17;2.13;;;0.70;;
32295;SDS011;18781;51.550;5.418;2022-07-06T10:55:48;1.15;;;0.65;;
32295;SDS011;18781;51.550;5.418;2022-07-06T11:01:10;3.78;;;0.68;;
32295;SDS011;18781;51.550;5.418;2022-07-06T11:03:37;1.33;;;0.40;;
32295;SDS011;18781;51.550;5.418;2022-07-06T11:06:08;2.90;;;0.70;;
32295;SDS011;18781;51.550;5.418;2022-07-06T11:11:23;2.78;;;0.70;;
32295;SDS011;18781;51.550;5.418;2022-07-06T11:14:01;1.95;;;0.60;;
32295;SDS011;18781;51.550;5.418;2022-07-06T11:16:30;4.47;;;0.73;;
32295;SDS011;18781;51.550;5.418;2022-07-06T11:19:10;4.68;;;1.10;;
32295;SDS011;18781;51.550;5.418;2022-07-06T11:21:38;2.30;;;0.60;;
32295;SDS011;18781;51.550;5.418;2022-07-06T11:24:21;2.10;;;0.55;;
32295;SDS011;18781;51.550;5.418;2022-07-06T11:26:48;2.28;;;0.55;;
32295;SDS011;18781;51.550;5.418;2022-07-06T11:29:16;3.50;;;0.60;;
32295;SDS011;18781;51.550;5.418;2022-07-06T11:31:43;3.38;;;0.80;;
32295;SDS011;18781;51.550;5.418;2022-07-06T11:34:12;4.35;;;0.88;;
32295;SDS011;18781;51.550;5.418;2022-07-06T11:36:42;4.15;;;0.90;;
32295;SDS011;18781;51.550;5.418;2022-07-06T11:39:07;2.40;;;0.73;;
32295;SDS011;18781;51.550;5.418;2022-07-06T11:41:33;3.35;;;0.80;;
32295;SDS011;18781;51.550;5.418;2022-07-06T11:44:00;2.67;;;0.43;;
32295;SDS011;18781;51.550;5.418;2022-07-06T11:46:29;2.17;;;0.55;;
32295;SDS011;18781;51.550;5.418;2022-07-06T11:49:01;2.17;;;0.95;;
32295;SDS011;18781;51.550;5.418;2022-07-06T11:56:34;4.43;;;0.70;;
32295;SDS011;18781;51.550;5.418;2022-07-06T11:59:00;1.33;;;0.60;;
32295;SDS011;18781;51.550;5.418;2022-07-06T12:01:27;1.33;;;0.57;;
32295;SDS011;18781;51.550;5.418;2022-07-06T12:03:59;4.25;;;1.08;;
32295;SDS011;18781;51.550;5.418;2022-07-06T12:06:26;5.15;;;0.95;;
32295;SDS011;18781;51.550;5.418;2022-07-06T12:08:54;6.70;;;0.82;;
32295;SDS011;18781;51.550;5.418;2022-07-06T12:11:28;1.50;;;0.70;;
32295;SDS011;18781;51.550;5.418;2022-07-06T12:13:56;5.95;;;0.88;;
32295;SDS011;18781;51.550;5.418;2022-07-06T12:16:29;2.30;;;0.60;;
32295;SDS011;18781;51.550;5.418;2022-07-06T12:18:59;2.78;;;0.60;;
32295;SDS011;18781;51.550;5.418;2022-07-06T12:21:25;3.95;;;0.80;;
32295;SDS011;18781;51.550;5.418;2022-07-06T12:23:51;3.75;;;0.45;;
32295;SDS011;18781;51.550;5.418;2022-07-06T12:26:19;4.50;;;0.60;;
32295;SDS011;18781;51.550;5.418;2022-07-06T12:28:58;4.53;;;0.68;;
32295;SDS011;18781;51.550;5.418;2022-07-06T12:31:31;2.92;;;0.63;;
32295;SDS011;18781;51.550;5.418;2022-07-06T12:33:58;2.97;;;0.63;;
32295;SDS011;18781;51.550;5.418;2022-07-06T12:36:24;1.23;;;0.60;;
32295;SDS011;18781;51.550;5.418;2022-07-06T12:38:50;3.28;;;0.80;;
32295;SDS011;18781;51.550;5.418;2022-07-06T12:41:25;1.85;;;0.70;;
32295;SDS011;18781;51.550;5.418;2022-07-06T12:46:34;2.63;;;0.65;;
32295;SDS011;18781;51.550;5.418;2022-07-06T12:49:03;3.92;;;0.95;;
32295;SDS011;18781;51.550;5.418;2022-07-06T12:51:50;2.60;;;0.70;;
32295;SDS011;18781;51.550;5.418;2022-07-06T12:54:16;2.10;;;0.70;;
32295;SDS011;18781;51.550;5.418;2022-07-06T12:59:48;2.28;;;0.50;;
32295;SDS011;18781;51.550;5.418;2022-07-06T13:07:20;2.45;;;0.65;;
32295;SDS011;18781;51.550;5.418;2022-07-06T13:09:46;4.75;;;0.60;;
32295;SDS011;18781;51.550;5.418;2022-07-06T13:12:12;6.18;;;1.17;;
32295;SDS011;18781;51.550;5.418;2022-07-06T13:14:37;2.92;;;0.80;;
32295;SDS011;18781;51.550;5.418;2022-07-06T13:17:03;4.43;;;0.93;;
32295;SDS011;18781;51.550;5.418;2022-07-06T13:19:29;2.50;;;0.80;;
32295;SDS011;18781;51.550;5.418;2022-07-06T13:21:54;3.83;;;0.68;;
32295;SDS011;18781;51.550;5.418;2022-07-06T13:24:20;2.97;;;0.80;;
32295;SDS011;18781;51.550;5.418;2022-07-06T13:26:45;7.20;;;1.00;;
32295;SDS011;18781;51.550;5.418;2022-07-06T13:29:11;6.63;;;1.13;;
32295;SDS011;18781;51.550;5.418;2022-07-06T13:31:37;2.67;;;0.95;;
32295;SDS011;18781;51.550;5.418;2022-07-06T13:34:04;7.03;;;0.93;;
32295;SDS011;18781;51.550;5.418;2022-07-06T13:36:30;3.17;;;1.17;;
32295;SDS011;18781;51.550;5.418;2022-07-06T13:38:56;4.40;;;1.25;;
32295;SDS011;18781;51.550;5.418;2022-07-06T13:41:22;5.78;;;1.30;;
32295;SDS011;18781;51.550;5.418;2022-07-06T13:43:47;3.33;;;0.85;;
32295;SDS011;18781;51.550;5.418;2022-07-06T13:46:13;2.92;;;0.70;;
32295;SDS011;18781;51.550;5.418;2022-07-06T13:48:41;2.92;;;0.73;;
32295;SDS011;18781;51.550;5.418;2022-07-06T13:51:07;2.92;;;0.82;;
32295;SDS011;18781;51.550;5.418;2022-07-06T13:53:32;3.55;;;1.05;;
32295;SDS011;18781;51.550;5.418;2022-07-06T13:55:58;5.72;;;0.90;;
32295;SDS011;18781;51.550;5.418;2022-07-06T13:58:24;7.53;;;1.30;;
32295;SDS011;18781;51.550;5.418;2022-07-06T14:00:50;2.97;;;0.93;;
32295;SDS011;18781;51.550;5.418;2022-07-06T14:03:15;3.70;;;1.05;;
32295;SDS011;18781;51.550;5.418;2022-07-06T14:05:41;3.95;;;1.02;;
32295;SDS011;18781;51.550;5.418;2022-07-06T14:08:07;2.85;;;0.98;;
32295;SDS011;18781;51.550;5.418;2022-07-06T14:10:33;4.50;;;1.10;;
32295;SDS011;18781;51.550;5.418;2022-07-06T14:12:58;4.72;;;1.08;;
32295;SDS011;18781;51.550;5.418;2022-07-06T14:15:24;3.92;;;1.15;;
32295;SDS011;18781;51.550;5.418;2022-07-06T14:17:49;5.63;;;1.15;;
32295;SDS011;18781;51.550;5.418;2022-07-06T14:20:15;8.25;;;1.25;;
32295;SDS011;18781;51.550;5.418;2022-07-06T14:22:41;5.03;;;1.23;;
32295;SDS011;18781;51.550;5.418;2022-07-06T14:25:06;4.22;;;1.25;;
32295;SDS011;18781;51.550;5.418;2022-07-06T14:27:33;4.38;;;1.17;;
32295;SDS011;18781;51.550;5.418;2022-07-06T14:29:59;3.10;;;1.27;;
32295;SDS011;18781;51.550;5.418;2022-07-06T14:32:24;4.13;;;1.00;;
32295;SDS011;18781;51.550;5.418;2022-07-06T14:34:50;5.43;;;1.20;;
32295;SDS011;18781;51.550;5.418;2022-07-06T14:37:16;3.63;;;1.00;;
32295;SDS011;18781;51.550;5.418;2022-07-06T14:39:42;6.80;;;1.25;;
32295;SDS011;18781;51.550;5.418;2022-07-06T14:42:07;5.60;;;1.35;;
32295;SDS011;18781;51.550;5.418;2022-07-06T14:44:33;4.60;;;1.08;;
32295;SDS011;18781;51.550;5.418;2022-07-06T14:46:59;5.30;;;1.00;;
32295;SDS011;18781;51.550;5.418;2022-07-06T14:49:24;7.15;;;1.20;;
32295;SDS011;18781;51.550;5.418;2022-07-06T14:51:50;6.85;;;1.40;;
32295;SDS011;18781;51.550;5.418;2022-07-06T14:54:15;4.78;;;1.10;;
32295;SDS011;18781;51.550;5.418;2022-07-06T14:56:41;2.67;;;1.08;;
32295;SDS011;18781;51.550;5.418;2022-07-06T14:59:07;4.80;;;1.08;;
32295;SDS011;18781;51.550;5.418;2022-07-06T15:01:33;7.22;;;1.30;;
32295;SDS011;18781;51.550;5.418;2022-07-06T15:03:58;5.05;;;1.05;;
32295;SDS011;18781;51.550;5.418;2022-07-06T15:06:24;7.30;;;1.10;;
32295;SDS011;18781;51.550;5.418;2022-07-06T15:08:50;5.80;;;1.15;;
32295;SDS011;18781;51.550;5.418;2022-07-06T15:11:16;2.83;;;1.05;;
32295;SDS011;18781;51.550;5.418;2022-07-06T15:13:41;2.80;;;0.90;;
32295;SDS011;18781;51.550;5.418;2022-07-06T15:16:07;3.05;;;1.00;;